Time;durP1;ratioP1;P1;durP2;ratioP2;P2;SDS_P1;SDS_P2;PMS_P1;PMS_P2;Temp;Humidity;BMP_temperature;BMP_pressure;BME280_temperature;BME280_humidity;BME280_pressure;Samples;Min_cycle;Max_cycle;Signal;HPM_P1;HPM_P2
2020/12/20 00:01:36;;;;;;;64.83;31.43;;;;;;;;;;4992333;28;20312;-77
2020/12/20 00:04:02;;;;;;;51.60;27.90;;;;;;;;;;4992553;28;20633;-77
2020/12/20 00:06:27;;;;;;;48.23;25.07;;;;;;;;;;4992808;28;20173;-78
2020/12/20 00:08:53;;;;;;;51.93;27.83;;;;;;;;;;4992486;28;20185;-78
2020/12/20 00:11:18;;;;;;;45.70;25.47;;;;;;;;;;4992823;28;20177;-77
2020/12/20 00:13:43;;;;;;;53.23;27.77;;;;;;;;;;4992704;28;20208;-77
2020/12/20 00:16:09;;;;;;;51.90;28.23;;;;;;;;;;4992512;28;20177;-77
2020/12/20 00:18:34;;;;;;;54.03;28.57;;;;;;;;;;4992744;28;20480;-77
2020/12/20 00:20:59;;;;;;;49.30;25.93;;;;;;;;;;4992455;28;20196;-78
2020/12/20 00:23:25;;;;;;;46.77;25.87;;;;;;;;;;4992442;28;20265;-78
2020/12/20 00:25:50;;;;;;;50.27;26.63;;;;;;;;;;4992643;28;20185;-78
2020/12/20 00:28:16;;;;;;;57.80;31.83;;;;;;;;;;4996086;28;20177;-77
2020/12/20 00:30:41;;;;;;;51.93;28.67;;;;;;;;;;4996329;28;20169;-77
2020/12/20 00:33:06;;;;;;;57.60;33.50;;;;;;;;;;4996494;28;20237;-77
2020/12/20 00:35:32;;;;;;;52.93;28.77;;;;;;;;;;4996164;28;20170;-78
2020/12/20 00:37:57;;;;;;;55.37;28.40;;;;;;;;;;5001178;28;20194;-78
2020/12/20 00:40:22;;;;;;;58.03;31.87;;;;;;;;;;5017658;28;20195;-78
2020/12/20 00:42:48;;;;;;;55.47;29.20;;;;;;;;;;5015656;28;20166;-80
2020/12/20 00:45:13;;;;;;;59.87;30.40;;;;;;;;;;4996360;28;20208;-77
2020/12/20 00:47:38;;;;;;;58.07;31.27;;;;;;;;;;4996002;28;20601;-77
2020/12/20 00:50:04;;;;;;;54.13;28.63;;;;;;;;;;4995467;28;20654;-77
2020/12/20 00:52:29;;;;;;;56.60;28.80;;;;;;;;;;4995623;28;20517;-77
2020/12/20 00:54:55;;;;;;;54.60;28.03;;;;;;;;;;4995401;28;20719;-77
2020/12/20 00:57:20;;;;;;;51.43;28.00;;;;;;;;;;4995362;28;20170;-78
2020/12/20 00:59:46;;;;;;;61.33;36.70;;;;;;;;;;4995396;28;20230;-77
2020/12/20 01:02:11;;;;;;;55.43;31.90;;;;;;;;;;4995209;28;20398;-77
2020/12/20 01:04:36;;;;;;;57.13;31.27;;;;;;;;;;4995628;28;20178;-77
2020/12/20 01:07:02;;;;;;;55.73;30.00;;;;;;;;;;4995594;28;20169;-77
2020/12/20 01:09:27;;;;;;;50.57;28.33;;;;;;;;;;4995450;28;20592;-77
2020/12/20 01:11:55;;;;;;;55.30;32.20;;;;;;;;;;4995514;28;20180;-78
2020/12/20 01:14:20;;;;;;;47.50;24.93;;;;;;;;;;4995308;28;20206;-79
2020/12/20 01:16:46;;;;;;;49.13;26.47;;;;;;;;;;4996110;28;20176;-77
2020/12/20 01:19:11;;;;;;;52.43;31.53;;;;;;;;;;4995041;28;20183;-78
2020/12/20 01:21:36;;;;;;;51.27;27.10;;;;;;;;;;4995038;28;20174;-77
2020/12/20 01:24:02;;;;;;;58.90;35.83;;;;;;;;;;4995177;28;20608;-77
2020/12/20 01:26:28;;;;;;;61.77;37.03;;;;;;;;;;4977779;28;20268;-78
2020/12/20 01:28:55;;;;;;;55.33;31.43;;;;;;;;;;4995089;28;20174;-78
2020/12/20 01:31:20;;;;;;;84.43;52.77;;;;;;;;;;4995293;28;20173;-77
2020/12/20 01:33:45;;;;;;;56.97;33.00;;;;;;;;;;4994709;28;20297;-77
2020/12/20 01:36:12;;;;;;;70.43;40.33;;;;;;;;;;4994652;28;20181;-77
2020/12/20 01:38:37;;;;;;;86.53;47.17;;;;;;;;;;4994503;28;20178;-78
2020/12/20 01:41:03;;;;;;;57.80;31.57;;;;;;;;;;4994906;28;20667;-78
2020/12/20 01:43:41;;;;;;;55.90;32.10;;;;;;;;;;4994734;28;20173;-77
2020/12/20 01:46:14;;;;;;;59.13;33.87;;;;;;;;;;4994764;28;20169;-77
2020/12/20 01:48:39;;;;;;;68.43;38.67;;;;;;;;;;4994562;28;20174;-77
2020/12/20 01:51:05;;;;;;;64.23;36.60;;;;;;;;;;4994702;28;20231;-78
2020/12/20 01:53:31;;;;;;;64.77;37.70;;;;;;;;;;4994739;28;20208;-77
2020/12/20 01:56:00;;;;;;;55.10;30.17;;;;;;;;;;4994593;28;20170;-78
2020/12/20 01:58:27;;;;;;;61.13;37.93;;;;;;;;;;4994480;28;20260;-78
2020/12/20 02:00:53;;;;;;;63.53;38.80;;;;;;;;;;4994743;28;20528;-77
2020/12/20 02:03:18;;;;;;;55.23;32.93;;;;;;;;;;4994234;28;20309;-78
2020/12/20 02:05:43;;;;;;;55.70;35.07;;;;;;;;;;4994362;28;20193;-78
2020/12/20 02:08:09;;;;;;;51.23;28.00;;;;;;;;;;4994607;28;20517;-78
2020/12/20 02:10:34;;;;;;;49.60;27.63;;;;;;;;;;4993987;28;20192;-77
2020/12/20 02:13:03;;;;;;;46.43;28.30;;;;;;;;;;4994055;28;20272;-78
2020/12/20 02:15:28;;;;;;;46.77;27.13;;;;;;;;;;4994243;28;20170;-78
2020/12/20 02:17:54;;;;;;;50.20;27.60;;;;;;;;;;4994364;28;20248;-77
2020/12/20 02:20:19;;;;;;;57.13;33.67;;;;;;;;;;4994198;28;20170;-77
2020/12/20 02:22:45;;;;;;;50.93;31.57;;;;;;;;;;4994097;28;20182;-77
2020/12/20 02:25:10;;;;;;;50.17;27.13;;;;;;;;;;4993756;28;20181;-77
2020/12/20 02:27:35;;;;;;;52.90;29.43;;;;;;;;;;4994066;28;20572;-77
2020/12/20 02:30:01;;;;;;;53.40;30.93;;;;;;;;;;4993770;28;20178;-77
2020/12/20 02:32:26;;;;;;;54.63;28.90;;;;;;;;;;4994477;28;20180;-77
2020/12/20 02:34:51;;;;;;;47.97;27.00;;;;;;;;;;4993536;28;20197;-77
2020/12/20 02:37:17;;;;;;;46.77;26.03;;;;;;;;;;4993540;28;20540;-77
2020/12/20 02:39:43;;;;;;;47.23;27.77;;;;;;;;;;4993551;28;20173;-77
2020/12/20 02:42:08;;;;;;;47.53;27.70;;;;;;;;;;4993455;28;20204;-77
2020/12/20 02:44:33;;;;;;;45.13;26.73;;;;;;;;;;4994034;28;20628;-77
2020/12/20 02:46:59;;;;;;;46.77;27.73;;;;;;;;;;4993635;28;20169;-78
2020/12/20 02:49:24;;;;;;;50.50;27.43;;;;;;;;;;4993031;28;20170;-77
2020/12/20 02:51:49;;;;;;;48.20;27.37;;;;;;;;;;4993146;28;20647;-77
2020/12/20 02:54:15;;;;;;;41.70;25.23;;;;;;;;;;4993268;28;20708;-77
2020/12/20 02:56:44;;;;;;;45.03;25.33;;;;;;;;;;4993578;28;20177;-77
2020/12/20 02:59:09;;;;;;;61.30;35.67;;;;;;;;;;4993517;28;20169;-78
2020/12/20 03:01:34;;;;;;;47.00;27.40;;;;;;;;;;4993027;28;20229;-78
2020/12/20 03:04:00;;;;;;;48.40;26.20;;;;;;;;;;4993246;28;20186;-78
2020/12/20 03:06:25;;;;;;;43.17;25.33;;;;;;;;;;4993859;28;20252;-78
2020/12/20 03:08:50;;;;;;;46.67;26.70;;;;;;;;;;4993078;28;20170;-77
2020/12/20 03:11:16;;;;;;;46.83;25.43;;;;;;;;;;4993064;28;20223;-77
2020/12/20 03:13:41;;;;;;;44.87;27.13;;;;;;;;;;4992954;28;20252;-77
2020/12/20 03:16:07;;;;;;;42.07;24.43;;;;;;;;;;4993555;28;20174;-78
2020/12/20 03:18:32;;;;;;;46.93;26.60;;;;;;;;;;4993564;28;20680;-77
2020/12/20 03:20:57;;;;;;;42.80;25.53;;;;;;;;;;4993855;28;20197;-77
2020/12/20 03:23:23;;;;;;;41.83;24.77;;;;;;;;;;4993135;28;20181;-77
2020/12/20 03:25:48;;;;;;;41.30;24.90;;;;;;;;;;4993275;28;20261;-77
2020/12/20 03:28:13;;;;;;;43.47;24.87;;;;;;;;;;4993472;28;20174;-78
2020/12/20 03:30:39;;;;;;;45.20;25.43;;;;;;;;;;4993258;28;20173;-77
2020/12/20 03:33:04;;;;;;;84.67;45.20;;;;;;;;;;4992840;28;20205;-78
2020/12/20 03:35:29;;;;;;;64.10;36.80;;;;;;;;;;4993633;28;20715;-78
2020/12/20 03:37:55;;;;;;;126.73;61.27;;;;;;;;;;4993103;28;20177;-77
2020/12/20 03:40:21;;;;;;;54.63;29.87;;;;;;;;;;4993149;28;20184;-77
2020/12/20 03:42:47;;;;;;;42.70;25.73;;;;;;;;;;4993289;28;20628;-77
2020/12/20 03:45:13;;;;;;;50.40;29.90;;;;;;;;;;4993079;28;20167;-78
2020/12/20 03:47:39;;;;;;;51.60;32.57;;;;;;;;;;4993048;28;20170;-78
2020/12/20 03:50:04;;;;;;;47.03;28.73;;;;;;;;;;4993079;28;20280;-77
2020/12/20 03:52:29;;;;;;;51.23;30.70;;;;;;;;;;4993551;28;20232;-77
2020/12/20 03:54:55;;;;;;;52.37;29.67;;;;;;;;;;4992818;28;20228;-77
2020/12/20 03:57:20;;;;;;;66.43;33.67;;;;;;;;;;4992634;28;20257;-77
2020/12/20 03:59:45;;;;;;;77.07;35.23;;;;;;;;;;4992676;28;20225;-77
2020/12/20 04:02:11;;;;;;;84.23;37.17;;;;;;;;;;4995090;28;20190;-77
2020/12/20 04:04:36;;;;;;;63.43;31.83;;;;;;;;;;4996654;28;20201;-77
2020/12/20 04:07:01;;;;;;;72.67;31.97;;;;;;;;;;4996808;28;20503;-77
2020/12/20 04:09:27;;;;;;;51.63;28.87;;;;;;;;;;4996312;28;20181;-77
2020/12/20 04:11:52;;;;;;;65.30;31.50;;;;;;;;;;4996543;28;20177;-77
2020/12/20 04:14:18;;;;;;;77.67;34.80;;;;;;;;;;4996527;28;20216;-77
2020/12/20 04:16:43;;;;;;;80.40;35.67;;;;;;;;;;4996426;28;20177;-77
2020/12/20 04:19:08;;;;;;;64.10;32.07;;;;;;;;;;4996388;28;20162;-78
2020/12/20 04:21:34;;;;;;;52.90;28.83;;;;;;;;;;4996523;28;20298;-77
2020/12/20 04:23:59;;;;;;;61.10;31.33;;;;;;;;;;4996080;28;20683;-77
2020/12/20 04:26:25;;;;;;;59.23;32.00;;;;;;;;;;4996229;28;20173;-77
2020/12/20 04:28:50;;;;;;;58.30;31.70;;;;;;;;;;4996190;28;20174;-78
2020/12/20 04:31:15;;;;;;;59.67;35.20;;;;;;;;;;4996295;28;20177;-78
2020/12/20 04:33:41;;;;;;;79.00;40.37;;;;;;;;;;4996038;28;20201;-77
2020/12/20 04:36:06;;;;;;;61.80;36.00;;;;;;;;;;4996060;28;20620;-77
2020/12/20 04:38:32;;;;;;;57.67;32.43;;;;;;;;;;4996204;28;20556;-77
2020/12/20 04:40:58;;;;;;;51.83;30.77;;;;;;;;;;4995791;28;20240;-77
2020/12/20 04:43:24;;;;;;;46.07;28.80;;;;;;;;;;4996043;28;20170;-77
2020/12/20 04:45:52;;;;;;;42.57;26.43;;;;;;;;;;4995899;28;20177;-77
2020/12/20 04:48:18;;;;;;;46.77;28.80;;;;;;;;;;4995872;28;20257;-77
2020/12/20 04:50:44;;;;;;;45.10;28.03;;;;;;;;;;4995522;28;20174;-77
2020/12/20 04:53:09;;;;;;;58.37;35.13;;;;;;;;;;4995745;28;20727;-78
2020/12/20 04:55:36;;;;;;;52.67;33.77;;;;;;;;;;4996252;28;20238;-77
2020/12/20 04:58:01;;;;;;;73.17;38.60;;;;;;;;;;4995299;28;20181;-77
2020/12/20 05:00:26;;;;;;;62.40;35.10;;;;;;;;;;4967304;28;802926;-78
2020/12/20 05:02:52;;;;;;;73.87;39.77;;;;;;;;;;4995323;28;20298;-77
2020/12/20 05:05:17;;;;;;;105.80;57.13;;;;;;;;;;4995875;28;20193;-77
2020/12/20 05:07:43;;;;;;;70.87;41.90;;;;;;;;;;4995492;28;20166;-78
2020/12/20 05:10:08;;;;;;;79.60;44.27;;;;;;;;;;4995470;28;20166;-77
2020/12/20 05:12:34;;;;;;;71.37;39.87;;;;;;;;;;4994421;28;20516;-77
2020/12/20 05:15:16;;;;;;;62.40;36.10;;;;;;;;;;4994947;28;20272;-77
2020/12/20 05:17:41;;;;;;;60.07;34.73;;;;;;;;;;4995092;28;20185;-78
2020/12/20 05:20:07;;;;;;;53.00;29.50;;;;;;;;;;4995530;28;20688;-78
2020/12/20 05:22:32;;;;;;;55.57;31.67;;;;;;;;;;4994924;28;20536;-77
2020/12/20 05:25:13;;;;;;;54.07;30.43;;;;;;;;;;4995536;28;20189;-78
2020/12/20 05:27:39;;;;;;;44.43;25.70;;;;;;;;;;4995544;28;20165;-77
2020/12/20 05:30:14;;;;;;;54.07;29.43;;;;;;;;;;4994842;28;20162;-78
2020/12/20 05:32:41;;;;;;;38.13;23.13;;;;;;;;;;4995447;28;20640;-77
2020/12/20 05:35:09;;;;;;;43.30;25.47;;;;;;;;;;4995150;28;20205;-78
2020/12/20 05:37:35;;;;;;;51.73;32.53;;;;;;;;;;4994947;28;20170;-77
2020/12/20 05:40:04;;;;;;;47.10;27.13;;;;;;;;;;4994903;28;20192;-78
2020/12/20 05:42:29;;;;;;;42.23;24.73;;;;;;;;;;4994611;28;20170;-77
2020/12/20 05:45:07;;;;;;;38.80;23.67;;;;;;;;;;4994879;28;20331;-77
2020/12/20 05:47:32;;;;;;;35.10;22.13;;;;;;;;;;4994502;28;20362;-77
2020/12/20 05:49:58;;;;;;;38.77;23.00;;;;;;;;;;4994708;28;20613;-77
2020/12/20 05:52:23;;;;;;;39.13;23.27;;;;;;;;;;4994463;28;20197;-77
2020/12/20 05:54:49;;;;;;;39.80;24.80;;;;;;;;;;4994504;28;20723;-77
2020/12/20 05:57:15;;;;;;;37.63;22.20;;;;;;;;;;4994407;28;20204;-79
2020/12/20 05:59:41;;;;;;;39.70;21.93;;;;;;;;;;4994608;28;20280;-77
2020/12/20 06:02:07;;;;;;;38.43;22.87;;;;;;;;;;4994356;28;20521;-77
2020/12/20 06:04:32;;;;;;;43.07;26.63;;;;;;;;;;4994383;28;20181;-77
2020/12/20 06:06:58;;;;;;;43.60;25.17;;;;;;;;;;4994365;28;20268;-77
2020/12/20 06:09:28;;;;;;;42.23;24.93;;;;;;;;;;4994641;28;20635;-77
2020/12/20 06:11:54;;;;;;;41.70;23.90;;;;;;;;;;4994367;28;20181;-77
2020/12/20 06:14:24;;;;;;;36.50;21.53;;;;;;;;;;4994176;28;20549;-78
2020/12/20 06:17:08;;;;;;;38.00;21.50;;;;;;;;;;4994202;28;20229;-78
2020/12/20 06:19:36;;;;;;;33.93;19.97;;;;;;;;;;4993888;28;20177;-77
2020/12/20 06:22:07;;;;;;;35.83;19.23;;;;;;;;;;4993825;28;20181;-78
2020/12/20 06:24:35;;;;;;;39.73;20.20;;;;;;;;;;4993656;28;20172;-77
2020/12/20 06:27:01;;;;;;;34.00;18.77;;;;;;;;;;4994298;28;20213;-77
2020/12/20 06:29:27;;;;;;;47.37;19.07;;;;;;;;;;4993687;28;20583;-78
2020/12/20 06:31:54;;;;;;;40.70;20.23;;;;;;;;;;4993745;28;20173;-77
2020/12/20 06:34:19;;;;;;;34.33;18.13;;;;;;;;;;4993605;28;20201;-77
2020/12/20 06:36:45;;;;;;;39.87;18.10;;;;;;;;;;4993939;28;20173;-77
2020/12/20 06:39:10;;;;;;;54.53;19.20;;;;;;;;;;4993566;28;20174;-77
2020/12/20 06:41:37;;;;;;;45.33;20.87;;;;;;;;;;4993542;28;20201;-77
2020/12/20 06:44:12;;;;;;;38.40;20.60;;;;;;;;;;4993686;28;20205;-78
2020/12/20 06:46:38;;;;;;;50.07;20.63;;;;;;;;;;4993758;28;20302;-77
2020/12/20 06:49:23;;;;;;;41.60;20.73;;;;;;;;;;4993633;28;20250;-77
2020/12/20 06:51:48;;;;;;;45.57;19.57;;;;;;;;;;4993555;28;20626;-79
2020/12/20 06:54:23;;;;;;;41.07;20.57;;;;;;;;;;4993497;28;20233;-78
2020/12/20 06:57:07;;;;;;;45.73;21.17;;;;;;;;;;4993313;28;20165;-80
2020/12/20 06:59:45;;;;;;;41.87;19.03;;;;;;;;;;4993270;28;20166;-78
2020/12/20 07:02:10;;;;;;;37.90;18.50;;;;;;;;;;4993785;28;20670;-77
2020/12/20 07:04:40;;;;;;;47.70;20.23;;;;;;;;;;4993420;28;20178;-77
2020/12/20 07:07:06;;;;;;;50.40;19.97;;;;;;;;;;4993365;28;20729;-79
2020/12/20 07:09:32;;;;;;;56.33;19.87;;;;;;;;;;4993556;28;20184;-77
2020/12/20 07:11:57;;;;;;;45.17;20.93;;;;;;;;;;4993523;28;20292;-78
2020/12/20 07:14:23;;;;;;;44.17;21.53;;;;;;;;;;4993475;28;20609;-77
2020/12/20 07:16:49;;;;;;;47.97;22.37;;;;;;;;;;4993258;28;20701;-78
2020/12/20 07:19:24;;;;;;;39.23;21.90;;;;;;;;;;4993031;28;20174;-77
2020/12/20 07:21:49;;;;;;;46.17;22.73;;;;;;;;;;4993528;28;20528;-77
2020/12/20 07:24:17;;;;;;;40.93;22.87;;;;;;;;;;4975747;28;20182;-77
2020/12/20 07:26:42;;;;;;;48.37;23.67;;;;;;;;;;4992744;28;20182;-77
2020/12/20 07:29:08;;;;;;;51.50;25.10;;;;;;;;;;4992878;28;20185;-78
2020/12/20 07:31:33;;;;;;;46.47;22.53;;;;;;;;;;4993323;28;20170;-78
2020/12/20 07:33:59;;;;;;;48.30;23.93;;;;;;;;;;4993162;28;20210;-77
2020/12/20 07:36:25;;;;;;;44.13;25.33;;;;;;;;;;4994656;28;20213;-78
2020/12/20 07:38:51;;;;;;;43.57;24.77;;;;;;;;;;4998128;28;20209;-77
2020/12/20 07:41:17;;;;;;;43.57;23.90;;;;;;;;;;4997431;28;20621;-77
2020/12/20 07:43:43;;;;;;;41.30;22.53;;;;;;;;;;4997724;28;20636;-77
2020/12/20 07:46:10;;;;;;;40.27;22.90;;;;;;;;;;5003609;28;20154;-78
2020/12/20 07:48:36;;;;;;;38.67;21.57;;;;;;;;;;5018934;28;20182;-77
2020/12/20 07:51:10;;;;;;;44.60;23.53;;;;;;;;;;5018864;28;20174;-77
2020/12/20 07:53:37;;;;;;;44.80;24.30;;;;;;;;;;5007854;28;20247;-77
2020/12/20 07:56:03;;;;;;;41.23;22.27;;;;;;;;;;4997201;28;20561;-77
2020/12/20 07:58:31;;;;;;;47.13;24.00;;;;;;;;;;4997437;28;20174;-78
2020/12/20 08:01:06;;;;;;;43.67;25.60;;;;;;;;;;4997140;28;20234;-78
2020/12/20 08:03:33;;;;;;;46.53;25.80;;;;;;;;;;4997170;28;20649;-77
2020/12/20 08:06:06;;;;;;;44.77;26.07;;;;;;;;;;4996824;28;20178;-77
2020/12/20 08:08:31;;;;;;;41.97;26.23;;;;;;;;;;4996737;28;20180;-78
2020/12/20 08:10:56;;;;;;;45.77;25.50;;;;;;;;;;4996809;28;20261;-79
2020/12/20 08:13:22;;;;;;;46.80;27.53;;;;;;;;;;4997074;28;20542;-77
2020/12/20 08:15:47;;;;;;;45.00;25.63;;;;;;;;;;4996439;28;20681;-77
2020/12/20 08:18:13;;;;;;;98.83;46.93;;;;;;;;;;4996382;28;20229;-78
2020/12/20 08:20:38;;;;;;;126.97;60.53;;;;;;;;;;4996337;28;20672;-78
2020/12/20 08:23:04;;;;;;;81.53;42.33;;;;;;;;;;4996640;28;20178;-77
2020/12/20 08:25:30;;;;;;;67.23;37.97;;;;;;;;;;4996247;28;20173;-78
2020/12/20 08:27:55;;;;;;;51.73;29.53;;;;;;;;;;4996196;28;20181;-78
2020/12/20 08:30:20;;;;;;;72.37;39.30;;;;;;;;;;4994741;28;20177;-78
2020/12/20 08:32:46;;;;;;;54.20;31.00;;;;;;;;;;4994340;28;20181;-78
2020/12/20 08:35:24;;;;;;;53.90;33.17;;;;;;;;;;4993988;28;20646;-78
2020/12/20 08:37:53;;;;;;;55.30;31.60;;;;;;;;;;4992155;28;20236;-78
2020/12/20 08:40:19;;;;;;;55.10;33.00;;;;;;;;;;4994280;28;20174;-77
2020/12/20 08:42:46;;;;;;;53.70;30.83;;;;;;;;;;4992059;28;20169;-78
2020/12/20 08:45:12;;;;;;;54.30;30.97;;;;;;;;;;4994073;28;20197;-77
2020/12/20 08:47:37;;;;;;;63.30;33.90;;;;;;;;;;4994261;28;20174;-79
2020/12/20 08:50:03;;;;;;;103.37;54.27;;;;;;;;;;4994435;28;20178;-77
2020/12/20 08:52:29;;;;;;;61.40;39.07;;;;;;;;;;4995530;28;20205;-77
2020/12/20 08:54:55;;;;;;;55.80;34.50;;;;;;;;;;4994584;28;20209;-77
2020/12/20 08:57:30;;;;;;;55.67;32.37;;;;;;;;;;4994475;28;20700;-77
2020/12/20 09:00:10;;;;;;;63.60;39.40;;;;;;;;;;4996453;28;20232;-77
2020/12/20 09:02:35;;;;;;;53.80;31.47;;;;;;;;;;4997150;28;20225;-77
2020/12/20 09:05:10;;;;;;;53.73;31.27;;;;;;;;;;4996695;28;20178;-77
2020/12/20 09:07:37;;;;;;;67.50;40.83;;;;;;;;;;4996985;28;20684;-78
2020/12/20 09:10:07;;;;;;;53.43;29.23;;;;;;;;;;4996823;28;20178;-77
2020/12/20 09:12:33;;;;;;;54.17;32.27;;;;;;;;;;4996585;28;20506;-77
2020/12/20 09:15:04;;;;;;;54.13;31.77;;;;;;;;;;4996268;28;20201;-77
2020/12/20 09:17:40;;;;;;;69.60;40.97;;;;;;;;;;4996430;28;20198;-77
2020/12/20 09:20:08;;;;;;;60.57;34.23;;;;;;;;;;4996558;28;20193;-77
2020/12/20 09:23:00;;;;;;;45.10;25.17;;;;;;;;;;4996197;28;20261;-77
2020/12/20 09:25:44;;;;;;;51.53;31.23;;;;;;;;;;4991613;28;20198;-78
2020/12/20 09:28:10;;;;;;;60.87;34.83;;;;;;;;;;4995532;28;20170;-78
2020/12/20 09:30:37;;;;;;;65.13;34.30;;;;;;;;;;4994315;28;20173;-78
2020/12/20 09:33:18;;;;;;;60.87;34.23;;;;;;;;;;4993685;28;20260;-77
2020/12/20 09:35:55;;;;;;;52.07;28.50;;;;;;;;;;4994114;28;20582;-78
2020/12/20 09:38:21;;;;;;;71.20;40.47;;;;;;;;;;4994002;28;20177;-78
2020/12/20 09:40:47;;;;;;;64.83;37.83;;;;;;;;;;4994635;28;20181;-78
2020/12/20 09:43:19;;;;;;;66.90;37.47;;;;;;;;;;4994345;28;20166;-77
2020/12/20 09:45:44;;;;;;;65.03;38.87;;;;;;;;;;4994134;28;20180;-78
2020/12/20 09:48:10;;;;;;;60.93;37.50;;;;;;;;;;4993817;28;20177;-78
2020/12/20 09:50:35;;;;;;;65.63;37.00;;;;;;;;;;4994062;28;20178;-78
2020/12/20 09:53:00;;;;;;;61.33;35.43;;;;;;;;;;4993659;28;20532;-77
2020/12/20 09:55:29;;;;;;;66.20;38.80;;;;;;;;;;4992990;28;20178;-77
2020/12/20 09:57:55;;;;;;;62.57;38.17;;;;;;;;;;4993130;28;20633;-78
2020/12/20 10:00:20;;;;;;;68.80;42.33;;;;;;;;;;4994061;28;20257;-78
2020/12/20 10:02:45;;;;;;;64.83;39.00;;;;;;;;;;4995863;28;20239;-77
2020/12/20 10:05:11;;;;;;;58.37;35.97;;;;;;;;;;4996483;28;20264;-78
2020/12/20 10:07:36;;;;;;;60.80;35.27;;;;;;;;;;4996083;28;20197;-77
2020/12/20 10:10:04;;;;;;;61.10;36.90;;;;;;;;;;4995848;28;20174;-77
2020/12/20 10:12:29;;;;;;;74.57;44.47;;;;;;;;;;4995332;28;20174;-77
2020/12/20 10:14:54;;;;;;;55.43;32.37;;;;;;;;;;4993748;28;20202;-78
2020/12/20 10:17:20;;;;;;;61.00;37.47;;;;;;;;;;4993474;28;20189;-78
2020/12/20 10:19:45;;;;;;;70.60;40.70;;;;;;;;;;4993448;28;20174;-77
2020/12/20 10:22:10;;;;;;;61.80;38.73;;;;;;;;;;4993317;28;20181;-78
2020/12/20 10:24:36;;;;;;;60.60;37.43;;;;;;;;;;4993355;28;20181;-77
2020/12/20 10:27:01;;;;;;;55.20;32.73;;;;;;;;;;4993116;28;20184;-78
2020/12/20 10:29:26;;;;;;;49.90;31.40;;;;;;;;;;4993294;28;20185;-77
2020/12/20 10:31:52;;;;;;;49.03;31.23;;;;;;;;;;5012484;28;20203;-78
2020/12/20 10:34:17;;;;;;;59.90;36.93;;;;;;;;;;5012386;28;20213;-77
2020/12/20 10:36:43;;;;;;;70.60;42.20;;;;;;;;;;4996229;28;20182;-77
2020/12/20 10:39:08;;;;;;;57.27;35.03;;;;;;;;;;4994813;28;20521;-77
2020/12/20 10:41:37;;;;;;;58.67;35.73;;;;;;;;;;4994886;28;20194;-77
2020/12/20 10:44:03;;;;;;;56.87;32.60;;;;;;;;;;4994197;28;20169;-77
2020/12/20 10:46:28;;;;;;;71.17;42.57;;;;;;;;;;4993117;28;20261;-78
2020/12/20 10:48:54;;;;;;;66.33;40.03;;;;;;;;;;4992871;28;20548;-78
2020/12/20 10:51:20;;;;;;;61.43;35.00;;;;;;;;;;4992928;28;20220;-79
2020/12/20 10:53:46;;;;;;;67.43;40.73;;;;;;;;;;4992876;28;20210;-77
2020/12/20 10:56:11;;;;;;;56.07;35.83;;;;;;;;;;4992903;28;20185;-79
2020/12/20 10:58:36;;;;;;;51.30;31.77;;;;;;;;;;4994214;28;20174;-77
2020/12/20 11:01:02;;;;;;;59.53;36.30;;;;;;;;;;4994618;28;20312;-77
2020/12/20 11:03:27;;;;;;;49.20;31.20;;;;;;;;;;4994834;28;20221;-77
2020/12/20 11:05:52;;;;;;;55.43;36.53;;;;;;;;;;4993832;28;20613;-77
2020/12/20 11:08:18;;;;;;;48.20;32.97;;;;;;;;;;4975095;28;20191;-77
2020/12/20 11:10:43;;;;;;;66.50;40.80;;;;;;;;;;4991631;28;20217;-78
2020/12/20 11:13:08;;;;;;;69.50;39.93;;;;;;;;;;4993076;28;20174;-79
2020/12/20 11:15:34;;;;;;;77.93;46.13;;;;;;;;;;4993078;28;20173;-78
2020/12/20 11:17:59;;;;;;;70.50;40.73;;;;;;;;;;4992938;28;20264;-78
2020/12/20 11:20:25;;;;;;;52.40;32.00;;;;;;;;;;4992872;28;20521;-77
2020/12/20 11:22:51;;;;;;;60.33;36.43;;;;;;;;;;4993242;28;20178;-77
2020/12/20 11:25:16;;;;;;;71.00;41.67;;;;;;;;;;4992722;28;20177;-77
2020/12/20 11:27:41;;;;;;;78.27;47.97;;;;;;;;;;4992707;28;20560;-78
2020/12/20 11:30:06;;;;;;;61.17;37.80;;;;;;;;;;4992676;28;20525;-78
2020/12/20 11:32:34;;;;;;;62.03;36.40;;;;;;;;;;4975541;28;20174;-77
2020/12/20 11:34:59;;;;;;;72.07;43.90;;;;;;;;;;4994251;28;20209;-77
2020/12/20 11:37:25;;;;;;;62.77;37.93;;;;;;;;;;4994719;28;20193;-78
2020/12/20 11:39:50;;;;;;;83.43;45.63;;;;;;;;;;4992697;28;20687;-77
2020/12/20 11:42:18;;;;;;;77.07;40.73;;;;;;;;;;4993080;28;20523;-78
2020/12/20 11:44:44;;;;;;;120.53;60.70;;;;;;;;;;4992762;28;20185;-78
2020/12/20 11:47:09;;;;;;;122.87;68.00;;;;;;;;;;4992527;28;20739;-78
2020/12/20 11:49:34;;;;;;;81.37;41.83;;;;;;;;;;4992465;28;20540;-78
2020/12/20 11:52:00;;;;;;;75.97;43.00;;;;;;;;;;4992844;28;20200;-78
2020/12/20 11:54:25;;;;;;;105.30;61.67;;;;;;;;;;4992873;28;20197;-78
2020/12/20 11:56:50;;;;;;;79.73;43.97;;;;;;;;;;4992726;28;20617;-78
2020/12/20 11:59:16;;;;;;;85.47;45.17;;;;;;;;;;4992559;28;20197;-77
2020/12/20 12:01:41;;;;;;;89.63;51.23;;;;;;;;;;4992254;28;20234;-78
2020/12/20 12:04:06;;;;;;;97.53;51.73;;;;;;;;;;4992087;28;20539;-77
2020/12/20 12:06:32;;;;;;;78.13;45.63;;;;;;;;;;4991639;28;20231;-78
2020/12/20 12:08:57;;;;;;;103.43;57.50;;;;;;;;;;4992116;28;20178;-77
2020/12/20 12:11:23;;;;;;;87.03;50.43;;;;;;;;;;4992199;28;20178;-77
2020/12/20 12:13:48;;;;;;;81.13;48.07;;;;;;;;;;4992503;28;20292;-78
2020/12/20 12:16:15;;;;;;;84.37;47.90;;;;;;;;;;4992370;28;20569;-78
2020/12/20 12:18:40;;;;;;;74.70;45.47;;;;;;;;;;4992570;28;20178;-78
2020/12/20 12:21:09;;;;;;;55.10;32.00;;;;;;;;;;4992112;28;20284;-78
2020/12/20 12:23:35;;;;;;;67.03;42.27;;;;;;;;;;4995161;28;20229;-78
2020/12/20 12:26:00;;;;;;;72.60;41.47;;;;;;;;;;4995574;28;20182;-78
2020/12/20 12:28:27;;;;;;;60.70;37.80;;;;;;;;;;4996182;28;20182;-78
2020/12/20 12:30:53;;;;;;;60.00;37.30;;;;;;;;;;4996021;28;20185;-78
2020/12/20 12:33:18;;;;;;;57.20;35.00;;;;;;;;;;4995653;28;20170;-78
2020/12/20 12:35:43;;;;;;;55.03;31.63;;;;;;;;;;4995141;28;20174;-77
2020/12/20 12:38:09;;;;;;;51.97;31.77;;;;;;;;;;4996270;28;20185;-77
2020/12/20 12:40:34;;;;;;;58.00;35.63;;;;;;;;;;4979726;28;20189;-77
2020/12/20 12:42:59;;;;;;;100.53;62.83;;;;;;;;;;4997280;28;20575;-77
2020/12/20 12:45:25;;;;;;;77.97;46.50;;;;;;;;;;4996921;28;20216;-77
2020/12/20 12:47:51;;;;;;;90.83;46.57;;;;;;;;;;4996964;28;20186;-77
2020/12/20 12:50:16;;;;;;;65.27;38.13;;;;;;;;;;4997861;28;20170;-78
2020/12/20 12:52:42;;;;;;;64.60;38.27;;;;;;;;;;4997196;28;20680;-77
2020/12/20 12:55:07;;;;;;;61.10;36.20;;;;;;;;;;4996915;28;20201;-78
2020/12/20 12:57:32;;;;;;;66.43;42.83;;;;;;;;;;4996780;28;20181;-78
2020/12/20 12:59:58;;;;;;;89.07;54.53;;;;;;;;;;4996636;28;20264;-78
2020/12/20 13:02:24;;;;;;;75.70;46.10;;;;;;;;;;4996854;28;20645;-77
2020/12/20 13:04:50;;;;;;;61.77;38.97;;;;;;;;;;4996497;28;20536;-78
2020/12/20 13:07:15;;;;;;;70.63;40.77;;;;;;;;;;4996614;28;20170;-78
2020/12/20 13:09:40;;;;;;;68.27;41.07;;;;;;;;;;4996440;28;20229;-78
2020/12/20 13:12:08;;;;;;;75.47;42.90;;;;;;;;;;4996370;28;20668;-78
2020/12/20 13:14:33;;;;;;;81.47;49.67;;;;;;;;;;4997391;28;20295;-77
2020/12/20 13:16:59;;;;;;;85.67;50.97;;;;;;;;;;5011882;28;20174;-77
2020/12/20 13:19:24;;;;;;;96.13;54.50;;;;;;;;;;5008666;28;20194;-78
2020/12/20 13:21:49;;;;;;;88.63;52.80;;;;;;;;;;4995833;28;20178;-78
2020/12/20 13:24:15;;;;;;;69.00;42.00;;;;;;;;;;4995974;28;20640;-78
2020/12/20 13:26:41;;;;;;;60.07;36.27;;;;;;;;;;4996371;28;20186;-78
2020/12/20 13:29:06;;;;;;;81.53;48.93;;;;;;;;;;4994440;28;20646;-78
2020/12/20 13:31:31;;;;;;;78.13;44.70;;;;;;;;;;4994695;28;20174;-77
2020/12/20 13:33:58;;;;;;;63.50;38.00;;;;;;;;;;4995174;28;20202;-77
2020/12/20 13:36:26;;;;;;;65.43;38.43;;;;;;;;;;4995878;28;20288;-78
2020/12/20 13:38:54;;;;;;;75.97;44.80;;;;;;;;;;4993927;28;20184;-78
2020/12/20 13:41:20;;;;;;;82.03;46.40;;;;;;;;;;4994007;28;20700;-78
2020/12/20 13:43:46;;;;;;;65.07;38.90;;;;;;;;;;4994284;28;20178;-79
2020/12/20 13:46:11;;;;;;;60.73;36.67;;;;;;;;;;4994087;28;20307;-78
2020/12/20 13:48:36;;;;;;;67.37;37.90;;;;;;;;;;4994171;28;20166;-78
2020/12/20 13:51:02;;;;;;;106.87;59.03;;;;;;;;;;4994042;28;20600;-78
2020/12/20 13:53:27;;;;;;;87.63;47.70;;;;;;;;;;4995390;28;20276;-77
2020/12/20 13:55:52;;;;;;;82.13;44.93;;;;;;;;;;4995444;28;20170;-78
2020/12/20 13:58:18;;;;;;;130.13;62.00;;;;;;;;;;4995704;28;20637;-77
2020/12/20 14:00:46;;;;;;;86.70;45.97;;;;;;;;;;4993914;28;20619;-77
2020/12/20 14:03:12;;;;;;;94.00;47.97;;;;;;;;;;4994769;28;20632;-77
2020/12/20 14:05:38;;;;;;;83.07;46.83;;;;;;;;;;4994620;28;20172;-77
2020/12/20 14:08:04;;;;;;;78.33;45.37;;;;;;;;;;4994369;28;20178;-77
2020/12/20 14:10:29;;;;;;;92.57;48.07;;;;;;;;;;4995200;28;20169;-77
2020/12/20 14:12:55;;;;;;;113.23;63.60;;;;;;;;;;4995470;28;20181;-78